MTT weather

Minatitlán/Coatzacoalcos National Airport
Minatitlán, Veracruz, Mexico

Public forecast

Using degrees Celsius for public forecast. Weather courtesy of forecast.io.

METAR (pilot weather report)

Retrieved 2019/06/16 17:40 UTC (17 minutes ago):

MMMT 161740Z 18010KT 5SM FEW010 BKN200 34/23 A2982 RMK SLP173 57200 960 8/108 HZY

TAF (pilot weather forecast)

Forecast is more than 6 hours old.

Retrieved 2019/06/16 06:14 UTC (12 hours ago):

TAF MMMT 160507Z 1606/1706 02005KT P6SM SCT030 FM161600 02012KT P6SM SCT020 FM162200 36012KT P6SM BKN020 TEMPO 1622/1702 2SM TSRA BKN015CB